Terminal Aerodrome Forecast
Issued by NWS Wichita, KS

Home | Current Version | Previous Version | Text Only | Print | Product List | Glossary Off
Versions: 1 2 3 4 5 6 7 8 9 10 11 12 13 14 15 16 17 18 19 20 21 22 23 24 25 26

621
FTUS43 KICT 262056 AAC
TAFICT
TAF AMD
KICT 262056Z 2621/2718 07015G22KT 6SM TSRA SCT035 OVC090CB
      TEMPO 2621/2624 VRB25G40KT 2SM +TSRAGR OVC035CB
     FM270000 06015KT P6SM VCTS SCT015 BKN030CB
     FM270600 02015KT P6SM VCSH SCT009 BKN015
     FM271400 01014KT P6SM SCT015 BKN080
     FM271700 01015KT P6SM SCT025=

USA.gov is the U.S. government's official web portal to all federal, state and local government web resources and services.